Terminal Aerodrome Forecast
Issued by NWS

Home | Current Version | Previous Version | Graphics & Text | Print | Product List | Glossary On
Versions: 1 2 3 4 5 6 7 8 9 10 11 12 13 14 15 16 17 18 19 20 21
000
FTUS43 KGRB 260050 AAA
TAFATW
TAF AMD
KATW 260050Z 2601/2624 22011G18KT P6SM BKN040 BKN070 WS015/24040KT
      TEMPO 2601/2602 27020G30KT 4SM -TSRA BKN025CB
     FM260200 21010KT P6SM SCT040 WS015/24040KT
      TEMPO 2609/2613 2SM BR BKN008
     FM261300 20010KT P6SM SCT040 BKN120
     FM261700 16011KT P6SM -SHRA BKN035 BKN070
     FM262100 10010KT 6SM -SHRA BKN020 OVC035=

USA.gov is the U.S. government's official web portal to all federal, state and local government web resources and services.